FLI401 EKVG-BIKF
Flight info
| Callsign | FLI401 |
|---|---|
| Flight time | 1h 29m |
| Altitude | 38000 |
| Route | MY DCT ING DCT NASBU NASBU2H |
| Aircraft | A20N/M-SDE2E3FGHIRWXY/LB1 |
Departure
| Time | 2026-05-08 15:41 |
|---|---|
| Airport | Vágar Airport (EKVG) |
Arrival
| Time | 2026-05-08 17:10 |
|---|---|
| Airport | Keflavik International Airport (BIKF) |
| Time | Latitude | Longitude | Altitude | Speed | Heading |
|---|---|---|---|---|---|
| 2026-05-08 15:11 | 62.06708 | -7.28044 | 279 ft | 0 kts | 71° |
| 2026-05-08 15:33 | 62.06708 | -7.28047 | 288 ft | 1 kts | 71° |
| 2026-05-08 15:33 | 62.06708 | -7.28049 | 288 ft | 0 kts | 71° |
| 2026-05-08 15:34 | 62.06707 | -7.28049 | 288 ft | 0 kts | 71° |
| 2026-05-08 15:36 | 62.06708 | -7.28048 | 288 ft | 0 kts | 71° |
| 2026-05-08 15:36 | 62.06707 | -7.28044 | 288 ft | 0 kts | 104° |
| 2026-05-08 15:36 | 62.06697 | -7.28044 | 288 ft | 4 kts | 201° |
| 2026-05-08 15:37 | 62.06656 | -7.28079 | 287 ft | 7 kts | 195° |
| 2026-05-08 15:37 | 62.06598 | -7.28085 | 287 ft | 9 kts | 179° |
| 2026-05-08 15:37 | 62.06530 | -7.28115 | 287 ft | 10 kts | 202° |
| 2026-05-08 15:37 | 62.06469 | -7.28137 | 289 ft | 8 kts | 149° |
| 2026-05-08 15:38 | 62.06436 | -7.28027 | 290 ft | 9 kts | 117° |
| 2026-05-08 15:38 | 62.06399 | -7.27880 | 290 ft | 12 kts | 118° |
| 2026-05-08 15:38 | 62.06350 | -7.27685 | 290 ft | 18 kts | 118° |
| 2026-05-08 15:38 | 62.06277 | -7.27394 | 286 ft | 26 kts | 118° |
| 2026-05-08 15:39 | 62.06184 | -7.27015 | 278 ft | 30 kts | 117° |
| 2026-05-08 15:39 | 62.06084 | -7.26612 | 269 ft | 31 kts | 118° |
| 2026-05-08 15:39 | 62.05980 | -7.26189 | 259 ft | 28 kts | 118° |
| 2026-05-08 15:39 | 62.05945 | -7.25998 | 255 ft | 3 kts | 167° |
| 2026-05-08 15:40 | 62.05944 | -7.26028 | 256 ft | 1 kts | 281° |
| 2026-05-08 15:40 | 62.05949 | -7.26060 | 256 ft | 3 kts | 296° |
| 2026-05-08 15:40 | 62.05953 | -7.26073 | 256 ft | 6 kts | 298° |
| 2026-05-08 15:40 | 62.06099 | -7.26664 | 271 ft | 82 kts | 298° |
| 2026-05-08 15:41 | 62.06469 | -7.28163 | 296 ft | 144 kts | 301° |
| 2026-05-08 15:41 | 62.06955 | -7.30082 | 904 ft | 150 kts | 300° |
| 2026-05-08 15:41 | 62.07422 | -7.32078 | 1671 ft | 155 kts | 293° |
| 2026-05-08 15:41 | 62.07724 | -7.34270 | 2339 ft | 161 kts | 286° |
| 2026-05-08 15:42 | 62.07980 | -7.36712 | 2762 ft | 178 kts | 284° |
| 2026-05-08 15:42 | 62.08242 | -7.39393 | 3247 ft | 193 kts | 284° |
| 2026-05-08 15:42 | 62.08521 | -7.42293 | 3777 ft | 208 kts | 284° |
| 2026-05-08 15:42 | 62.08830 | -7.45394 | 4299 ft | 225 kts | 285° |
| 2026-05-08 15:43 | 62.09259 | -7.48691 | 4838 ft | 241 kts | 289° |
| 2026-05-08 15:43 | 62.09760 | -7.52182 | 5516 ft | 250 kts | 289° |
| 2026-05-08 15:43 | 62.10278 | -7.55738 | 6370 ft | 252 kts | 289° |
| 2026-05-08 15:43 | 62.10874 | -7.59219 | 7186 ft | 255 kts | 294° |
| 2026-05-08 15:44 | 62.11611 | -7.62630 | 7985 ft | 257 kts | 297° |
| 2026-05-08 15:44 | 62.12400 | -7.66053 | 8765 ft | 260 kts | 296° |
| 2026-05-08 15:44 | 62.13204 | -7.69535 | 9520 ft | 264 kts | 296° |
| 2026-05-08 15:44 | 62.14018 | -7.73062 | 10234 ft | 269 kts | 296° |
| 2026-05-08 15:45 | 62.14857 | -7.76697 | 10746 ft | 279 kts | 296° |
| 2026-05-08 15:45 | 62.15715 | -7.80424 | 11381 ft | 285 kts | 295° |
| 2026-05-08 15:45 | 62.16584 | -7.84218 | 12103 ft | 288 kts | 295° |
| 2026-05-08 15:45 | 62.17469 | -7.88089 | 12781 ft | 292 kts | 294° |
| 2026-05-08 15:46 | 62.18361 | -7.91996 | 13450 ft | 298 kts | 294° |
| 2026-05-08 15:46 | 62.19266 | -7.95966 | 14132 ft | 300 kts | 294° |
| 2026-05-08 15:46 | 62.20182 | -7.99998 | 14794 ft | 305 kts | 294° |
| 2026-05-08 15:46 | 62.21109 | -8.04080 | 15462 ft | 308 kts | 294° |
| 2026-05-08 15:47 | 62.22055 | -8.08243 | 16141 ft | 312 kts | 294° |
| 2026-05-08 15:47 | 62.22995 | -8.12390 | 16807 ft | 316 kts | 294° |
| 2026-05-08 15:47 | 62.23962 | -8.16672 | 17408 ft | 322 kts | 294° |
| 2026-05-08 15:47 | 62.24944 | -8.21032 | 17950 ft | 329 kts | 294° |
| 2026-05-08 15:48 | 62.26939 | -8.29901 | 19232 ft | 335 kts | 294° |
| 2026-05-08 15:48 | 62.27941 | -8.34367 | 19838 ft | 338 kts | 294° |
| 2026-05-08 15:48 | 62.28956 | -8.38906 | 20435 ft | 341 kts | 294° |
| 2026-05-08 15:49 | 62.29987 | -8.43521 | 21028 ft | 344 kts | 294° |
| 2026-05-08 15:49 | 62.31017 | -8.48142 | 21585 ft | 346 kts | 294° |
| 2026-05-08 15:49 | 62.32044 | -8.52758 | 22113 ft | 349 kts | 294° |
| 2026-05-08 15:49 | 62.33093 | -8.57481 | 22642 ft | 352 kts | 294° |
| 2026-05-08 15:50 | 62.34145 | -8.62233 | 23159 ft | 355 kts | 294° |
| 2026-05-08 15:50 | 62.35211 | -8.67060 | 23665 ft | 358 kts | 293° |
| 2026-05-08 15:50 | 62.36258 | -8.71824 | 24155 ft | 360 kts | 293° |
| 2026-05-08 15:50 | 62.37340 | -8.76755 | 24649 ft | 362 kts | 293° |
| 2026-05-08 15:51 | 62.38414 | -8.81661 | 25124 ft | 365 kts | 293° |
| 2026-05-08 15:51 | 62.39491 | -8.86587 | 25574 ft | 367 kts | 293° |
| 2026-05-08 15:51 | 62.40580 | -8.91579 | 26008 ft | 370 kts | 294° |
| 2026-05-08 15:51 | 62.41671 | -8.96591 | 26429 ft | 372 kts | 294° |
| 2026-05-08 15:52 | 62.42753 | -9.01573 | 26835 ft | 375 kts | 294° |
| 2026-05-08 15:52 | 62.43868 | -9.06721 | 27187 ft | 378 kts | 294° |
| 2026-05-08 15:52 | 62.44976 | -9.11844 | 27505 ft | 380 kts | 294° |
| 2026-05-08 15:52 | 62.46085 | -9.16985 | 27815 ft | 383 kts | 294° |
| 2026-05-08 15:53 | 62.47207 | -9.22200 | 28121 ft | 385 kts | 294° |
| 2026-05-08 15:53 | 62.48332 | -9.27437 | 28418 ft | 387 kts | 294° |
| 2026-05-08 15:53 | 62.49458 | -9.32697 | 28703 ft | 390 kts | 294° |
| 2026-05-08 15:53 | 62.50605 | -9.38064 | 28983 ft | 392 kts | 294° |
| 2026-05-08 15:54 | 62.51740 | -9.43391 | 29253 ft | 395 kts | 294° |
| 2026-05-08 15:54 | 62.52880 | -9.48756 | 29516 ft | 397 kts | 294° |
| 2026-05-08 15:54 | 62.54037 | -9.54210 | 29777 ft | 399 kts | 294° |
| 2026-05-08 15:54 | 62.55179 | -9.59611 | 30046 ft | 401 kts | 294° |
| 2026-05-08 15:55 | 62.56345 | -9.65142 | 30323 ft | 403 kts | 293° |
| 2026-05-08 15:55 | 62.58669 | -9.76231 | 30854 ft | 407 kts | 293° |
| 2026-05-08 15:55 | 62.59821 | -9.81745 | 31106 ft | 409 kts | 293° |
| 2026-05-08 15:56 | 62.60997 | -9.87394 | 31353 ft | 411 kts | 293° |
| 2026-05-08 15:56 | 62.62173 | -9.93048 | 31577 ft | 413 kts | 293° |
| 2026-05-08 15:56 | 62.63356 | -9.98759 | 31787 ft | 415 kts | 293° |
| 2026-05-08 15:56 | 62.64521 | -10.04393 | 31991 ft | 417 kts | 293° |
| 2026-05-08 15:57 | 62.65709 | -10.10149 | 32199 ft | 419 kts | 293° |
| 2026-05-08 15:57 | 62.66899 | -10.15937 | 32403 ft | 421 kts | 293° |
| 2026-05-08 15:57 | 62.68092 | -10.21753 | 32601 ft | 423 kts | 293° |
| 2026-05-08 15:57 | 62.69270 | -10.27519 | 32788 ft | 424 kts | 293° |
| 2026-05-08 15:58 | 62.70470 | -10.33403 | 32976 ft | 426 kts | 294° |
| 2026-05-08 15:58 | 62.71668 | -10.39291 | 33206 ft | 426 kts | 294° |
| 2026-05-08 15:58 | 62.72856 | -10.45143 | 33448 ft | 425 kts | 294° |
| 2026-05-08 15:58 | 62.74050 | -10.51045 | 33674 ft | 425 kts | 294° |
| 2026-05-08 15:59 | 62.75230 | -10.56892 | 33880 ft | 425 kts | 294° |
| 2026-05-08 15:59 | 62.76418 | -10.62795 | 34083 ft | 425 kts | 294° |
| 2026-05-08 15:59 | 62.77599 | -10.68688 | 34285 ft | 425 kts | 293° |
| 2026-05-08 15:59 | 62.78770 | -10.74558 | 34480 ft | 425 kts | 293° |
| 2026-05-08 16:00 | 62.79946 | -10.80470 | 34671 ft | 426 kts | 293° |
| 2026-05-08 16:00 | 62.81121 | -10.86389 | 34862 ft | 425 kts | 293° |
| 2026-05-08 16:00 | 62.82296 | -10.92325 | 35045 ft | 425 kts | 293° |
| 2026-05-08 16:00 | 62.83456 | -10.98200 | 35220 ft | 426 kts | 293° |
| 2026-05-08 16:01 | 62.84618 | -11.04102 | 35396 ft | 426 kts | 293° |
| 2026-05-08 16:01 | 62.85777 | -11.09998 | 35568 ft | 426 kts | 293° |
| 2026-05-08 16:01 | 62.86953 | -11.16001 | 35734 ft | 426 kts | 293° |
| 2026-05-08 16:01 | 62.88112 | -11.21939 | 35885 ft | 426 kts | 293° |
| 2026-05-08 16:02 | 62.89267 | -11.27863 | 36033 ft | 426 kts | 293° |
| 2026-05-08 16:02 | 62.90413 | -11.33765 | 36180 ft | 426 kts | 293° |
| 2026-05-08 16:02 | 62.91576 | -11.39771 | 36328 ft | 427 kts | 293° |
| 2026-05-08 16:02 | 62.92717 | -11.45683 | 36467 ft | 427 kts | 293° |
| 2026-05-08 16:03 | 62.93866 | -11.51646 | 36602 ft | 427 kts | 293° |
| 2026-05-08 16:03 | 62.95023 | -11.57673 | 36732 ft | 427 kts | 293° |
| 2026-05-08 16:03 | 62.96160 | -11.63619 | 36856 ft | 427 kts | 293° |
| 2026-05-08 16:03 | 62.97303 | -11.69613 | 36981 ft | 427 kts | 292° |
| 2026-05-08 16:04 | 62.98440 | -11.75607 | 37105 ft | 428 kts | 292° |
| 2026-05-08 16:04 | 62.99585 | -11.81659 | 37225 ft | 428 kts | 292° |
| 2026-05-08 16:04 | 63.00723 | -11.87690 | 37341 ft | 428 kts | 292° |
| 2026-05-08 16:04 | 63.01859 | -11.93721 | 37450 ft | 428 kts | 292° |
| 2026-05-08 16:05 | 63.02977 | -11.99674 | 37555 ft | 428 kts | 292° |
| 2026-05-08 16:05 | 63.04107 | -12.05707 | 37656 ft | 428 kts | 292° |
| 2026-05-08 16:05 | 63.06368 | -12.17835 | 37850 ft | 428 kts | 292° |
| 2026-05-08 16:06 | 63.08617 | -12.29976 | 38007 ft | 429 kts | 292° |
| 2026-05-08 16:06 | 63.10866 | -12.42155 | 38030 ft | 431 kts | 292° |
| 2026-05-08 16:07 | 63.13127 | -12.54345 | 38040 ft | 431 kts | 292° |
| 2026-05-08 16:07 | 63.15361 | -12.66541 | 38047 ft | 431 kts | 292° |
| 2026-05-08 16:08 | 63.17576 | -12.78788 | 38054 ft | 431 kts | 291° |
| 2026-05-08 16:08 | 63.19773 | -12.91030 | 38061 ft | 431 kts | 292° |
| 2026-05-08 16:09 | 63.21972 | -13.03355 | 38068 ft | 431 kts | 292° |
| 2026-05-08 16:09 | 63.24142 | -13.15596 | 38075 ft | 430 kts | 292° |
| 2026-05-08 16:10 | 63.26143 | -13.26944 | 38081 ft | 430 kts | 292° |
| 2026-05-08 16:10 | 63.28313 | -13.39328 | 38098 ft | 430 kts | 292° |
| 2026-05-08 16:11 | 63.30445 | -13.51575 | 38118 ft | 430 kts | 292° |
| 2026-05-08 16:11 | 63.32589 | -13.63963 | 38129 ft | 429 kts | 292° |
| 2026-05-08 16:12 | 63.34708 | -13.76314 | 38135 ft | 429 kts | 291° |
| 2026-05-08 16:12 | 63.36818 | -13.88689 | 38140 ft | 429 kts | 291° |
| 2026-05-08 16:13 | 63.38915 | -14.01060 | 38145 ft | 429 kts | 291° |
| 2026-05-08 16:13 | 63.41007 | -14.13478 | 38149 ft | 429 kts | 291° |
| 2026-05-08 16:14 | 63.43077 | -14.25853 | 38155 ft | 429 kts | 291° |
| 2026-05-08 16:14 | 63.45147 | -14.38298 | 38160 ft | 429 kts | 291° |
| 2026-05-08 16:15 | 63.47205 | -14.50759 | 38164 ft | 429 kts | 291° |
| 2026-05-08 16:15 | 63.49257 | -14.63265 | 38170 ft | 429 kts | 291° |
| 2026-05-08 16:16 | 63.51295 | -14.75793 | 38178 ft | 429 kts | 290° |
| 2026-05-08 16:16 | 63.53318 | -14.88317 | 38183 ft | 429 kts | 290° |
| 2026-05-08 16:17 | 63.55328 | -15.00838 | 38187 ft | 429 kts | 290° |
| 2026-05-08 16:17 | 63.57328 | -15.13370 | 38189 ft | 428 kts | 291° |
| 2026-05-08 16:18 | 63.59318 | -15.25914 | 38189 ft | 428 kts | 291° |
| 2026-05-08 16:18 | 63.61296 | -15.38472 | 38189 ft | 429 kts | 291° |
| 2026-05-08 16:19 | 63.63265 | -15.51058 | 38189 ft | 429 kts | 291° |
| 2026-05-08 16:19 | 63.65226 | -15.63686 | 38190 ft | 430 kts | 291° |
| 2026-05-08 16:20 | 63.67164 | -15.76273 | 38192 ft | 430 kts | 290° |
| 2026-05-08 16:20 | 63.69114 | -15.89030 | 38193 ft | 430 kts | 290° |
| 2026-05-08 16:21 | 63.71035 | -16.01668 | 38194 ft | 430 kts | 290° |
| 2026-05-08 16:21 | 63.72957 | -16.14393 | 38196 ft | 430 kts | 290° |
| 2026-05-08 16:22 | 63.74869 | -16.27146 | 38198 ft | 429 kts | 290° |
| 2026-05-08 16:22 | 63.76762 | -16.39841 | 38201 ft | 430 kts | 290° |
| 2026-05-08 16:23 | 63.78639 | -16.52567 | 38199 ft | 429 kts | 290° |
| 2026-05-08 16:23 | 63.80168 | -16.65631 | 38191 ft | 430 kts | 283° |
| 2026-05-08 16:24 | 63.81050 | -16.78945 | 38189 ft | 431 kts | 278° |
| 2026-05-08 16:24 | 63.81718 | -16.92357 | 38199 ft | 430 kts | 278° |
| 2026-05-08 16:25 | 63.82370 | -17.05725 | 38213 ft | 429 kts | 278° |
| 2026-05-08 16:25 | 63.83013 | -17.19087 | 38217 ft | 428 kts | 279° |
| 2026-05-08 16:26 | 63.83643 | -17.32404 | 38215 ft | 427 kts | 279° |
| 2026-05-08 16:26 | 63.84261 | -17.45701 | 38214 ft | 425 kts | 279° |
| 2026-05-08 16:27 | 63.84865 | -17.58961 | 37740 ft | 427 kts | 279° |
| 2026-05-08 16:27 | 63.85163 | -17.65589 | 37276 ft | 428 kts | 278° |
| 2026-05-08 16:27 | 63.85460 | -17.72296 | 36745 ft | 429 kts | 278° |
| 2026-05-08 16:28 | 63.85753 | -17.78994 | 36193 ft | 430 kts | 278° |
| 2026-05-08 16:28 | 63.86044 | -17.85712 | 35661 ft | 430 kts | 278° |
| 2026-05-08 16:28 | 63.86335 | -17.92382 | 35112 ft | 431 kts | 278° |
| 2026-05-08 16:28 | 63.86615 | -17.99115 | 34528 ft | 433 kts | 279° |
| 2026-05-08 16:29 | 63.86896 | -18.05865 | 33929 ft | 434 kts | 279° |
| 2026-05-08 16:29 | 63.87175 | -18.12631 | 33335 ft | 435 kts | 279° |
| 2026-05-08 16:29 | 63.87445 | -18.19441 | 32725 ft | 437 kts | 279° |
| 2026-05-08 16:29 | 63.87720 | -18.26235 | 32103 ft | 438 kts | 280° |
| 2026-05-08 16:30 | 63.87999 | -18.33114 | 31558 ft | 436 kts | 280° |
| 2026-05-08 16:30 | 63.88269 | -18.39868 | 31104 ft | 432 kts | 280° |
| 2026-05-08 16:30 | 63.88531 | -18.46618 | 30685 ft | 426 kts | 281° |
| 2026-05-08 16:30 | 63.88783 | -18.53207 | 30289 ft | 421 kts | 282° |
| 2026-05-08 16:31 | 63.89028 | -18.59727 | 30027 ft | 412 kts | 282° |
| 2026-05-08 16:31 | 63.89270 | -18.66141 | 29603 ft | 406 kts | 282° |
| 2026-05-08 16:31 | 63.89507 | -18.72428 | 29075 ft | 404 kts | 282° |
| 2026-05-08 16:31 | 63.89744 | -18.78775 | 28593 ft | 400 kts | 282° |
| 2026-05-08 16:32 | 63.89973 | -18.85012 | 28140 ft | 395 kts | 283° |
| 2026-05-08 16:32 | 63.90195 | -18.91136 | 27661 ft | 390 kts | 283° |
| 2026-05-08 16:32 | 63.90413 | -18.97195 | 27161 ft | 385 kts | 283° |
| 2026-05-08 16:32 | 63.90628 | -19.03245 | 26668 ft | 380 kts | 283° |
| 2026-05-08 16:33 | 63.90836 | -19.09175 | 26196 ft | 376 kts | 283° |
| 2026-05-08 16:33 | 63.91036 | -19.14967 | 25782 ft | 372 kts | 283° |
| 2026-05-08 16:33 | 63.91237 | -19.20834 | 25344 ft | 370 kts | 283° |
| 2026-05-08 16:33 | 63.91433 | -19.26617 | 24871 ft | 370 kts | 283° |
| 2026-05-08 16:34 | 63.91625 | -19.32366 | 24384 ft | 366 kts | 283° |
| 2026-05-08 16:34 | 63.91811 | -19.38067 | 23973 ft | 359 kts | 283° |
| 2026-05-08 16:34 | 63.91988 | -19.43596 | 23610 ft | 350 kts | 283° |
| 2026-05-08 16:34 | 63.92161 | -19.49065 | 23263 ft | 341 kts | 283° |
| 2026-05-08 16:35 | 63.92329 | -19.54384 | 22964 ft | 337 kts | 283° |
| 2026-05-08 16:35 | 63.92497 | -19.59649 | 22642 ft | 335 kts | 283° |
| 2026-05-08 16:35 | 63.92661 | -19.64882 | 22289 ft | 333 kts | 283° |
| 2026-05-08 16:35 | 63.92820 | -19.70082 | 21907 ft | 331 kts | 282° |
| 2026-05-08 16:36 | 63.92977 | -19.75309 | 21503 ft | 330 kts | 282° |
| 2026-05-08 16:36 | 63.93130 | -19.80429 | 21032 ft | 326 kts | 282° |
| 2026-05-08 16:36 | 63.93281 | -19.85532 | 20727 ft | 324 kts | 282° |
| 2026-05-08 16:36 | 63.93433 | -19.90673 | 20404 ft | 323 kts | 282° |
| 2026-05-08 16:37 | 63.93578 | -19.95685 | 20064 ft | 321 kts | 281° |
| 2026-05-08 16:37 | 63.93723 | -20.00751 | 19708 ft | 319 kts | 281° |
| 2026-05-08 16:37 | 63.93863 | -20.05731 | 19332 ft | 317 kts | 281° |
| 2026-05-08 16:37 | 63.94001 | -20.10672 | 18952 ft | 315 kts | 281° |
| 2026-05-08 16:38 | 63.94138 | -20.15642 | 18567 ft | 313 kts | 281° |
| 2026-05-08 16:38 | 63.94270 | -20.20525 | 18146 ft | 310 kts | 281° |
| 2026-05-08 16:38 | 63.94398 | -20.25388 | 17741 ft | 306 kts | 281° |
| 2026-05-08 16:38 | 63.94521 | -20.30132 | 17358 ft | 302 kts | 281° |
| 2026-05-08 16:39 | 63.94644 | -20.34869 | 16983 ft | 298 kts | 281° |
| 2026-05-08 16:39 | 63.94770 | -20.39535 | 16660 ft | 294 kts | 281° |
| 2026-05-08 16:39 | 63.94898 | -20.44128 | 16333 ft | 292 kts | 281° |
| 2026-05-08 16:39 | 63.95025 | -20.48718 | 15993 ft | 290 kts | 280° |
| 2026-05-08 16:40 | 63.95148 | -20.53211 | 15654 ft | 289 kts | 280° |
| 2026-05-08 16:40 | 63.95270 | -20.57737 | 15310 ft | 286 kts | 280° |
| 2026-05-08 16:40 | 63.95389 | -20.62226 | 14967 ft | 284 kts | 280° |
| 2026-05-08 16:40 | 63.95506 | -20.66664 | 14628 ft | 282 kts | 279° |
| 2026-05-08 16:41 | 63.95622 | -20.71160 | 14278 ft | 281 kts | 278° |
| 2026-05-08 16:41 | 63.95731 | -20.75584 | 13936 ft | 280 kts | 278° |
| 2026-05-08 16:41 | 63.95842 | -20.80047 | 13587 ft | 278 kts | 278° |
| 2026-05-08 16:42 | 63.96057 | -20.88697 | 12922 ft | 274 kts | 278° |
| 2026-05-08 16:42 | 63.96162 | -20.93024 | 12592 ft | 273 kts | 278° |
| 2026-05-08 16:42 | 63.96264 | -20.97314 | 12265 ft | 272 kts | 277° |
| 2026-05-08 16:42 | 63.96363 | -21.01592 | 11943 ft | 270 kts | 278° |
| 2026-05-08 16:43 | 63.96464 | -21.05805 | 11630 ft | 269 kts | 278° |
| 2026-05-08 16:43 | 63.96568 | -21.10040 | 11312 ft | 268 kts | 278° |
| 2026-05-08 16:43 | 63.96670 | -21.14224 | 10996 ft | 267 kts | 277° |
| 2026-05-08 16:43 | 63.96771 | -21.18454 | 10676 ft | 267 kts | 278° |
| 2026-05-08 16:44 | 63.96861 | -21.22622 | 10367 ft | 265 kts | 278° |
| 2026-05-08 16:44 | 63.96955 | -21.26769 | 10267 ft | 258 kts | 278° |
| 2026-05-08 16:44 | 63.97047 | -21.30772 | 10141 ft | 256 kts | 277° |
| 2026-05-08 16:44 | 63.97140 | -21.34827 | 9821 ft | 255 kts | 277° |
| 2026-05-08 16:45 | 63.97221 | -21.38790 | 9527 ft | 252 kts | 277° |
| 2026-05-08 16:45 | 63.97303 | -21.42769 | 9241 ft | 249 kts | 277° |
| 2026-05-08 16:45 | 63.97384 | -21.46623 | 8962 ft | 246 kts | 277° |
| 2026-05-08 16:45 | 63.97463 | -21.50500 | 8683 ft | 243 kts | 277° |
| 2026-05-08 16:46 | 63.97540 | -21.54316 | 8414 ft | 240 kts | 277° |
| 2026-05-08 16:46 | 63.97612 | -21.58029 | 8152 ft | 237 kts | 277° |
| 2026-05-08 16:46 | 63.97683 | -21.61752 | 7888 ft | 235 kts | 277° |
| 2026-05-08 16:46 | 63.97753 | -21.65426 | 7628 ft | 232 kts | 276° |
| 2026-05-08 16:47 | 63.97822 | -21.69084 | 7371 ft | 230 kts | 275° |
| 2026-05-08 16:47 | 63.97887 | -21.72748 | 7022 ft | 234 kts | 275° |
| 2026-05-08 16:47 | 63.97955 | -21.76451 | 6517 ft | 241 kts | 275° |
| 2026-05-08 16:47 | 63.98024 | -21.80336 | 6008 ft | 245 kts | 275° |
| 2026-05-08 16:48 | 63.98087 | -21.84186 | 5678 ft | 242 kts | 275° |
| 2026-05-08 16:48 | 63.98152 | -21.87980 | 5210 ft | 245 kts | 275° |
| 2026-05-08 16:48 | 63.98228 | -21.91841 | 4923 ft | 240 kts | 275° |
| 2026-05-08 16:48 | 63.98276 | -21.95597 | 4628 ft | 236 kts | 274° |
| 2026-05-08 16:49 | 63.98368 | -21.99234 | 4345 ft | 230 kts | 278° |
| 2026-05-08 16:49 | 63.98498 | -22.02870 | 4022 ft | 229 kts | 276° |
| 2026-05-08 16:49 | 63.98569 | -22.06464 | 3705 ft | 229 kts | 275° |
| 2026-05-08 16:49 | 63.98598 | -22.10078 | 3392 ft | 228 kts | 273° |
| 2026-05-08 16:50 | 63.98594 | -22.13610 | 3166 ft | 224 kts | 273° |
| 2026-05-08 16:50 | 63.98584 | -22.17096 | 3008 ft | 215 kts | 272° |
| 2026-05-08 16:50 | 63.98572 | -22.20484 | 3021 ft | 217 kts | 273° |
| 2026-05-08 16:50 | 63.98560 | -22.23960 | 3017 ft | 218 kts | 272° |
| 2026-05-08 16:51 | 63.98547 | -22.27380 | 2969 ft | 214 kts | 273° |
| 2026-05-08 16:51 | 63.98536 | -22.30688 | 2743 ft | 208 kts | 274° |
| 2026-05-08 16:51 | 63.98530 | -22.33977 | 2444 ft | 203 kts | 273° |
| 2026-05-08 16:51 | 63.98523 | -22.37094 | 2155 ft | 193 kts | 273° |
| 2026-05-08 16:52 | 63.98517 | -22.40118 | 1899 ft | 192 kts | 274° |
| 2026-05-08 16:52 | 63.98511 | -22.43155 | 1632 ft | 191 kts | 273° |
| 2026-05-08 16:52 | 63.98508 | -22.46063 | 1444 ft | 179 kts | 273° |
| 2026-05-08 16:52 | 63.98503 | -22.48783 | 1185 ft | 168 kts | 274° |
| 2026-05-08 16:53 | 63.98505 | -22.53662 | 720 ft | 136 kts | 274° |
| 2026-05-08 16:53 | 63.98512 | -22.55798 | 1035 ft | 142 kts | 273° |
| 2026-05-08 16:53 | 63.98519 | -22.58112 | 1530 ft | 153 kts | 272° |
| 2026-05-08 16:54 | 63.98492 | -22.60659 | 2120 ft | 169 kts | 269° |
| 2026-05-08 16:54 | 63.98437 | -22.63394 | 2705 ft | 184 kts | 269° |
| 2026-05-08 16:54 | 63.98396 | -22.66505 | 2988 ft | 208 kts | 269° |
| 2026-05-08 16:54 | 63.98357 | -22.69900 | 2910 ft | 221 kts | 269° |
| 2026-05-08 16:55 | 63.98293 | -22.73490 | 2973 ft | 235 kts | 268° |
| 2026-05-08 16:55 | 63.98137 | -22.77238 | 2982 ft | 237 kts | 255° |
| 2026-05-08 16:55 | 63.97310 | -22.80438 | 2992 ft | 242 kts | 224° |
| 2026-05-08 16:55 | 63.95831 | -22.82222 | 3001 ft | 248 kts | 192° |
| 2026-05-08 16:56 | 63.94111 | -22.82535 | 3012 ft | 252 kts | 181° |
| 2026-05-08 16:56 | 63.92342 | -22.82484 | 3009 ft | 254 kts | 179° |
| 2026-05-08 16:56 | 63.90559 | -22.82058 | 3234 ft | 266 kts | 161° |
| 2026-05-08 16:56 | 63.89009 | -22.79948 | 3775 ft | 261 kts | 135° |
| 2026-05-08 16:57 | 63.88054 | -22.76490 | 4004 ft | 257 kts | 105° |
| 2026-05-08 16:57 | 63.87758 | -22.72582 | 3991 ft | 255 kts | 92° |
| 2026-05-08 16:57 | 63.87647 | -22.68576 | 3980 ft | 255 kts | 91° |
| 2026-05-08 16:57 | 63.87572 | -22.64524 | 3969 ft | 256 kts | 90° |
| 2026-05-08 16:58 | 63.87506 | -22.60545 | 3973 ft | 255 kts | 89° |
| 2026-05-08 16:58 | 63.87438 | -22.56505 | 3984 ft | 255 kts | 90° |
| 2026-05-08 16:58 | 63.87365 | -22.52522 | 3984 ft | 254 kts | 89° |
| 2026-05-08 16:58 | 63.87287 | -22.48516 | 3995 ft | 255 kts | 90° |
| 2026-05-08 16:59 | 63.87206 | -22.44545 | 3989 ft | 254 kts | 88° |
| 2026-05-08 16:59 | 63.87122 | -22.40515 | 3981 ft | 254 kts | 89° |
| 2026-05-08 16:59 | 63.87043 | -22.36514 | 3991 ft | 254 kts | 88° |
| 2026-05-08 16:59 | 63.86958 | -22.32536 | 3983 ft | 253 kts | 89° |
| 2026-05-08 17:00 | 63.86882 | -22.28601 | 3995 ft | 253 kts | 90° |
| 2026-05-08 17:00 | 63.86798 | -22.24626 | 3991 ft | 253 kts | 90° |
| 2026-05-08 17:00 | 63.86724 | -22.20622 | 3943 ft | 249 kts | 89° |
| 2026-05-08 17:00 | 63.86646 | -22.16759 | 3577 ft | 250 kts | 90° |
| 2026-05-08 17:01 | 63.86556 | -22.12806 | 3198 ft | 250 kts | 90° |
| 2026-05-08 17:01 | 63.86477 | -22.08927 | 3016 ft | 248 kts | 90° |
| 2026-05-08 17:01 | 63.86406 | -22.04991 | 3010 ft | 250 kts | 90° |
| 2026-05-08 17:01 | 63.86553 | -22.01183 | 2992 ft | 236 kts | 66° |
| 2026-05-08 17:02 | 63.87422 | -21.98289 | 2996 ft | 215 kts | 33° |
| 2026-05-08 17:02 | 63.88763 | -21.97046 | 3001 ft | 210 kts | 6° |
| 2026-05-08 17:02 | 63.90225 | -21.96790 | 2992 ft | 211 kts | 0° |
| 2026-05-08 17:02 | 63.91691 | -21.96732 | 2986 ft | 211 kts | 359° |
| 2026-05-08 17:03 | 63.93107 | -21.96979 | 2954 ft | 201 kts | 341° |
| 2026-05-08 17:03 | 63.94367 | -21.98323 | 2982 ft | 200 kts | 330° |
| 2026-05-08 17:03 | 63.95553 | -21.99915 | 2982 ft | 201 kts | 329° |
| 2026-05-08 17:03 | 63.96747 | -22.01587 | 2985 ft | 201 kts | 327° |
| 2026-05-08 17:04 | 63.97760 | -22.03767 | 2978 ft | 201 kts | 304° |
| 2026-05-08 17:04 | 63.98253 | -22.06724 | 2983 ft | 204 kts | 282° |
| 2026-05-08 17:04 | 63.98396 | -22.09952 | 2990 ft | 207 kts | 278° |
| 2026-05-08 17:04 | 63.98495 | -22.13199 | 2982 ft | 203 kts | 276° |
| 2026-05-08 17:05 | 63.98543 | -22.16250 | 3057 ft | 180 kts | 275° |
| 2026-05-08 17:05 | 63.98558 | -22.18993 | 2998 ft | 167 kts | 275° |
| 2026-05-08 17:05 | 63.98563 | -22.21611 | 3000 ft | 167 kts | 274° |
| 2026-05-08 17:05 | 63.98559 | -22.24258 | 2997 ft | 167 kts | 274° |
| 2026-05-08 17:06 | 63.98550 | -22.26924 | 2995 ft | 167 kts | 274° |
| 2026-05-08 17:06 | 63.98542 | -22.29566 | 2843 ft | 167 kts | 274° |
| 2026-05-08 17:06 | 63.98535 | -22.32172 | 2609 ft | 162 kts | 274° |
| 2026-05-08 17:06 | 63.98526 | -22.34646 | 2394 ft | 147 kts | 273° |
| 2026-05-08 17:07 | 63.98517 | -22.36828 | 2177 ft | 133 kts | 275° |
| 2026-05-08 17:07 | 63.98515 | -22.38903 | 1998 ft | 130 kts | 275° |
| 2026-05-08 17:07 | 63.98516 | -22.40939 | 1828 ft | 129 kts | 275° |
| 2026-05-08 17:07 | 63.98510 | -22.42997 | 1655 ft | 129 kts | 274° |
| 2026-05-08 17:08 | 63.98504 | -22.45028 | 1469 ft | 128 kts | 273° |
| 2026-05-08 17:08 | 63.98492 | -22.47048 | 1290 ft | 127 kts | 274° |
| 2026-05-08 17:08 | 63.98495 | -22.49042 | 1135 ft | 126 kts | 274° |
| 2026-05-08 17:08 | 63.98504 | -22.51014 | 951 ft | 125 kts | 272° |
| 2026-05-08 17:09 | 63.98505 | -22.52968 | 774 ft | 123 kts | 272° |
| 2026-05-08 17:09 | 63.98502 | -22.54903 | 603 ft | 122 kts | 271° |
| 2026-05-08 17:09 | 63.98500 | -22.56848 | 403 ft | 122 kts | 271° |
| 2026-05-08 17:09 | 63.98500 | -22.58756 | 257 ft | 121 kts | 271° |
| 2026-05-08 17:10 | 63.98501 | -22.60628 | 183 ft | 106 kts | 271° |
| 2026-05-08 17:10 | 63.98504 | -22.61925 | 183 ft | 57 kts | 271° |
| 2026-05-08 17:10 | 63.98506 | -22.62690 | 183 ft | 44 kts | 271° |
| 2026-05-08 17:10 | 63.98506 | -22.63347 | 182 ft | 39 kts | 271° |
| 2026-05-08 17:11 | 63.98576 | -22.63903 | 182 ft | 31 kts | 298° |
| 2026-05-08 17:11 | 63.98688 | -22.64153 | 182 ft | 21 kts | 355° |
| 2026-05-08 17:11 | 63.98815 | -22.64155 | 182 ft | 12 kts | 14° |
| 2026-05-08 17:11 | 63.98852 | -22.63991 | 182 ft | 13 kts | 94° |
| 2026-05-08 17:12 | 63.98853 | -22.63759 | 182 ft | 16 kts | 90° |
| 2026-05-08 17:12 | 63.98853 | -22.63462 | 182 ft | 21 kts | 90° |
| 2026-05-08 17:12 | 63.98851 | -22.63097 | 182 ft | 23 kts | 90° |
| 2026-05-08 17:12 | 63.98881 | -22.62893 | 182 ft | 11 kts | 25° |
| 2026-05-08 17:13 | 63.98960 | -22.62832 | 182 ft | 12 kts | 18° |
| 2026-05-08 17:13 | 63.99044 | -22.62773 | 182 ft | 13 kts | 17° |
| 2026-05-08 17:13 | 63.99133 | -22.62712 | 182 ft | 12 kts | 17° |
| 2026-05-08 17:13 | 63.99171 | -22.62583 | 182 ft | 11 kts | 88° |
| 2026-05-08 17:14 | 63.99191 | -22.62463 | 182 ft | 8 kts | 16° |
| 2026-05-08 17:14 | 63.99251 | -22.62459 | 182 ft | 8 kts | 0° |
| 2026-05-08 17:14 | 63.99280 | -22.62459 | 182 ft | 1 kts | 0° |
| 2026-05-08 17:14 | 63.99281 | -22.62459 | 182 ft | 0 kts | 0° |